createdAt,value
2023-10-20T00:00:39.029Z,99954.77
2023-10-20T00:03:27.199Z,99941.38
2023-10-20T00:05:55.479Z,99935.66
2023-10-20T00:08:24.688Z,99935.53
2023-10-20T00:10:53.691Z,99928.55
2023-10-20T00:13:22.525Z,99932.63
2023-10-20T00:15:51.510Z,99932.90
2023-10-20T00:18:19.896Z,99929.36
2023-10-20T00:20:48.268Z,99919.85
2023-10-20T00:23:16.339Z,99926.89
2023-10-20T00:25:44.859Z,99926.83
2023-10-20T00:28:12.948Z,99932.77
2023-10-20T00:30:41.545Z,99937.35
2023-10-20T00:33:10.360Z,99935.94
2023-10-20T00:35:39.042Z,99945.10
2023-10-20T00:38:07.725Z,99942.27
2023-10-20T00:40:36.067Z,99948.33
2023-10-20T00:43:04.423Z,99948.04
2023-10-20T00:45:32.651Z,99959.70
2023-10-20T00:48:01.697Z,99947.94
2023-10-20T00:50:31.789Z,99942.97
2023-10-20T00:53:01.618Z,99941.39
2023-10-20T00:55:31.786Z,99936.56
2023-10-20T00:58:00.942Z,99947.20
2023-10-20T01:00:30.231Z,99949.20
2023-10-20T01:02:58.828Z,99944.09
2023-10-20T01:05:28.848Z,99943.65
2023-10-20T01:07:57.683Z,99940.91
2023-10-20T01:10:25.845Z,99954.36
2023-10-20T01:12:54.164Z,99947.77
2023-10-20T01:15:22.878Z,99940.53
2023-10-20T01:17:51.196Z,99942.84
2023-10-20T01:20:19.497Z,99937.02
2023-10-20T01:22:47.601Z,99940.24
2023-10-20T01:25:16.592Z,99942.17
2023-10-20T01:27:45.043Z,99947.94
2023-10-20T01:30:13.648Z,99948.79
2023-10-20T01:32:43.282Z,99947.73
2023-10-20T01:35:12.096Z,99934.88
2023-10-20T01:37:44.248Z,99928.23
2023-10-20T01:40:13.739Z,99926.02
2023-10-20T01:42:42.117Z,99932.63
2023-10-20T01:45:11.216Z,99924.60
2023-10-20T01:47:40.119Z,99922.83
2023-10-20T01:50:09.235Z,99923.69
2023-10-20T01:52:38.639Z,99916.84
2023-10-20T01:55:07.800Z,99923.27
2023-10-20T01:57:36.394Z,99924.59
2023-10-20T02:00:09.394Z,99921.75
2023-10-20T02:02:44.179Z,99923.27
2023-10-20T02:05:13.779Z,99918.33
2023-10-20T02:07:43.927Z,99911.45
2023-10-20T02:10:12.210Z,99902.92
2023-10-20T02:12:40.615Z,99900.23
2023-10-20T02:15:09.536Z,99900.23
2023-10-20T02:17:38.019Z,99897.80
2023-10-20T02:20:08.202Z,99896.54
2023-10-20T02:22:36.649Z,99898.12
2023-10-20T02:25:05.809Z,99898.70
2023-10-20T02:27:33.932Z,99897.11
2023-10-20T02:30:04.398Z,99892.98
2023-10-20T02:32:32.791Z,99886.66
2023-10-20T02:35:02.419Z,99881.30
2023-10-20T02:37:30.672Z,99875.00
2023-10-20T02:40:00.166Z,99876.34
2023-10-20T02:42:30.028Z,99871.04
2023-10-20T02:44:58.461Z,99874.29
2023-10-20T02:47:27.305Z,99877.61
2023-10-20T02:49:57.057Z,99873.34
2023-10-20T02:52:26.361Z,99878.57
2023-10-20T02:54:56.126Z,99871.96
2023-10-20T02:57:24.453Z,99874.42
2023-10-20T02:59:52.872Z,99874.24
2023-10-20T03:02:24.342Z,99880.92
2023-10-20T03:04:55.659Z,99873.34
2023-10-20T03:07:28.787Z,99865.04
2023-10-20T03:09:58.158Z,99861.92
2023-10-20T03:12:26.200Z,99856.79
2023-10-20T03:14:54.300Z,99858.38
2023-10-20T03:17:22.489Z,99848.30
2023-10-20T03:19:50.863Z,99852.13
2023-10-20T03:22:18.948Z,99844.70
2023-10-20T03:24:47.012Z,99840.12
2023-10-20T03:27:15.329Z,99837.95
2023-10-20T03:29:44.263Z,99843.39
2023-10-20T03:32:12.959Z,99853.42
2023-10-20T03:34:41.709Z,99850.84
2023-10-20T03:37:09.831Z,99848.98
2023-10-20T03:39:38.588Z,99847.27
2023-10-20T03:42:08.498Z,99844.40
2023-10-20T03:44:37.195Z,99843.89
2023-10-20T03:47:07.057Z,99854.27
2023-10-20T03:49:36.669Z,99848.44
2023-10-20T03:52:08.116Z,99844.95
2023-10-20T03:54:36.252Z,99846.00
2023-10-20T03:57:05.150Z,99847.36
2023-10-20T03:59:33.891Z,99846.05
2023-10-20T04:02:02.998Z,99838.73
2023-10-20T04:04:31.749Z,99834.52
2023-10-20T04:07:00.089Z,99832.81
2023-10-20T04:09:30.498Z,99831.02
2023-10-20T04:11:58.834Z,99822.90
2023-10-20T04:14:27.257Z,99816.77
2023-10-20T04:16:55.986Z,99806.69
2023-10-20T04:19:24.243Z,99804.25
2023-10-20T04:21:52.614Z,99804.46
2023-10-20T04:24:23.024Z,99813.05
2023-10-20T04:26:51.598Z,99822.98
2023-10-20T04:29:20.234Z,99826.81
2023-10-20T04:32:07.041Z,99824.98
2023-10-20T04:34:54.354Z,99822.30
2023-10-20T04:37:41.062Z,99820.11
2023-10-20T04:40:28.351Z,99819.66
2023-10-20T04:43:15.057Z,99825.31
2023-10-20T04:46:18.987Z,99826.00
2023-10-20T04:48:59.233Z,99819.63
2023-10-20T04:51:50.708Z,99819.39
2023-10-20T04:54:24.502Z,99820.15
2023-10-20T04:57:11.504Z,99816.52
2023-10-20T04:59:40.752Z,99808.80
2023-10-20T05:02:25.725Z,99815.34
2023-10-20T05:04:54.175Z,99823.41
2023-10-20T05:07:27.785Z,99824.98
2023-10-20T05:09:56.092Z,99824.45
2023-10-20T05:12:24.542Z,99835.23
2023-10-20T05:14:52.690Z,99839.67
2023-10-20T05:17:22.380Z,99839.50
2023-10-20T05:19:50.822Z,99841.41
2023-10-20T05:22:18.831Z,99836.02
2023-10-20T05:24:47.118Z,99835.70
2023-10-20T05:27:15.432Z,99830.90
2023-10-20T05:29:44.269Z,99826.43
2023-10-20T05:32:12.657Z,99829.54
2023-10-20T05:34:41.062Z,99820.85
2023-10-20T05:37:10.002Z,99820.66
2023-10-20T05:39:38.948Z,99823.78
2023-10-20T05:42:07.133Z,99829.25
2023-10-20T05:44:35.829Z,99832.73
2023-10-20T05:47:05.418Z,99838.13
2023-10-20T05:49:34.028Z,99836.59
2023-10-20T05:52:02.338Z,99838.55
2023-10-20T05:54:31.736Z,99838.89
2023-10-20T05:57:00.467Z,99830.73
2023-10-20T05:59:28.698Z,99821.80
2023-10-20T06:01:59.689Z,99818.80
2023-10-20T06:04:28.779Z,99822.38
2023-10-20T06:06:57.696Z,99827.44
2023-10-20T06:09:26.659Z,99834.83
2023-10-20T06:11:55.388Z,99834.48
2023-10-20T06:14:27.567Z,99831.46
2023-10-20T06:16:56.121Z,99823.63
2023-10-20T06:19:25.104Z,99821.05
2023-10-20T06:21:54.339Z,99814.75
2023-10-20T06:24:22.629Z,99812.83
2023-10-20T06:26:51.203Z,99808.87
2023-10-20T06:29:29.125Z,99810.02
2023-10-20T06:32:16.097Z,99811.65
2023-10-20T06:34:44.368Z,99805.36
2023-10-20T06:37:26.440Z,99803.60
2023-10-20T06:39:54.950Z,99813.58
2023-10-20T06:42:23.727Z,99820.30
2023-10-20T06:44:52.932Z,99827.92
2023-10-20T06:47:22.732Z,99829.24
2023-10-20T06:49:51.336Z,99825.27
2023-10-20T06:52:20.245Z,99829.47
2023-10-20T06:55:15.320Z,99839.70
2023-10-20T06:57:39.044Z,99839.19
2023-10-20T07:00:18.020Z,99837.55
2023-10-20T07:02:46.534Z,99835.35
2023-10-20T07:05:15.769Z,99834.25
2023-10-20T07:07:44.418Z,99825.03
2023-10-20T07:10:13.290Z,99820.33
2023-10-20T07:12:41.463Z,99814.48
2023-10-20T07:15:10.261Z,99807.46
2023-10-20T07:17:38.456Z,99799.23
2023-10-20T07:20:08.377Z,99794.20
2023-10-20T07:22:36.624Z,99793.31
2023-10-20T07:25:05.628Z,99788.23
2023-10-20T07:27:33.730Z,99791.05
2023-10-20T07:30:02.078Z,99786.53
2023-10-20T07:32:30.765Z,99791.79
2023-10-20T07:34:59.100Z,99798.89
2023-10-20T07:37:27.193Z,99812.77
2023-10-20T07:39:55.712Z,99816.65
2023-10-20T07:42:24.148Z,99802.35
2023-10-20T07:44:52.602Z,99793.75
2023-10-20T07:47:21.049Z,99796.24
2023-10-20T07:49:49.800Z,99790.48
2023-10-20T07:52:18.761Z,99786.06
2023-10-20T07:54:46.845Z,99786.17
2023-10-20T07:57:16.863Z,99788.95
2023-10-20T07:59:46.608Z,99791.67
2023-10-20T08:02:15.026Z,99796.73
2023-10-20T08:04:43.522Z,99798.30
2023-10-20T08:07:13.193Z,99803.33
2023-10-20T08:09:41.738Z,99813.58
2023-10-20T08:12:10.193Z,99819.73
2023-10-20T08:14:39.079Z,99821.42
2023-10-20T08:17:09.079Z,99811.31
2023-10-20T08:19:37.473Z,99805.25
2023-10-20T08:22:05.610Z,99811.19
2023-10-20T08:24:34.230Z,99804.13
2023-10-20T08:27:03.386Z,99804.57
2023-10-20T08:29:33.436Z,99803.57
2023-10-20T08:32:01.976Z,99810.06
2023-10-20T08:34:33.607Z,99797.42
2023-10-20T08:37:03.529Z,99790.48
2023-10-20T08:39:33.043Z,99790.54
2023-10-20T08:42:01.759Z,99793.90
2023-10-20T08:44:31.614Z,99795.29
2023-10-20T08:47:00.746Z,99791.92
2023-10-20T08:49:29.687Z,99789.96
2023-10-20T08:51:59.566Z,99795.94
2023-10-20T08:54:27.889Z,99795.90
2023-10-20T08:56:56.070Z,99799.61
2023-10-20T08:59:25.139Z,99795.16
2023-10-20T09:01:57.446Z,99792.36
2023-10-20T09:04:27.486Z,99796.27
2023-10-20T09:06:56.974Z,99793.68
2023-10-20T09:09:25.088Z,99790.55
2023-10-20T09:11:54.900Z,99791.01
2023-10-20T09:14:26.251Z,99791.16
2023-10-20T09:16:58.521Z,99789.64
2023-10-20T09:19:26.640Z,99785.02
2023-10-20T09:21:59.045Z,99779.83
2023-10-20T09:24:36.058Z,99781.25
2023-10-20T09:27:06.082Z,99780.96
2023-10-20T09:29:35.831Z,99784.70
2023-10-20T09:32:06.346Z,99786.77
2023-10-20T09:34:36.411Z,99790.71
2023-10-20T09:37:06.013Z,99782.90
2023-10-20T09:39:40.824Z,99779.75
2023-10-20T09:42:14.113Z,99782.09
2023-10-20T09:44:48.943Z,99784.34
2023-10-20T09:47:26.203Z,99781.38
2023-10-20T09:49:56.044Z,99784.80
2023-10-20T09:52:24.257Z,99777.66
2023-10-20T09:54:54.269Z,99768.52
2023-10-20T09:57:24.072Z,99774.59
2023-10-20T09:59:55.795Z,99779.33
2023-10-20T10:02:29.216Z,99779.81
2023-10-20T10:04:58.982Z,99774.96
2023-10-20T10:07:34.124Z,99772.77
2023-10-20T10:10:06.020Z,99771.31
2023-10-20T10:12:35.724Z,99769.70
2023-10-20T10:15:13.699Z,99763.05
2023-10-20T10:17:50.432Z,99759.16
2023-10-20T10:20:26.399Z,99758.87
2023-10-20T10:23:01.866Z,99766.46
2023-10-20T10:26:13.231Z,99764.63
2023-10-20T10:28:49.754Z,99767.67
2023-10-20T10:31:18.785Z,99765.48
2023-10-20T10:33:48.185Z,99764.42
2023-10-20T10:36:16.387Z,99777.48
2023-10-20T10:38:45.714Z,99770.17
2023-10-20T10:41:14.378Z,99766.13
2023-10-20T10:43:43.525Z,99760.89
2023-10-20T10:46:13.076Z,99761.33
2023-10-20T10:48:41.428Z,99759.91
2023-10-20T10:51:10.851Z,99763.67
2023-10-20T10:53:41.390Z,99763.14
2023-10-20T10:56:10.519Z,99767.41
2023-10-20T10:58:39.717Z,99762.41
2023-10-20T11:01:08.199Z,99768.31
2023-10-20T11:03:36.922Z,99764.70
2023-10-20T11:06:05.729Z,99762.54
2023-10-20T11:08:34.642Z,99764.44
2023-10-20T11:11:04.018Z,99767.54
2023-10-20T11:13:33.989Z,99772.61
2023-10-20T11:16:02.259Z,99771.70
2023-10-20T11:18:30.657Z,99771.52
2023-10-20T11:20:58.970Z,99767.13
2023-10-20T11:23:31.267Z,99760.84
2023-10-20T11:25:59.635Z,99753.90
2023-10-20T11:28:29.849Z,99757.95
2023-10-20T11:30:58.498Z,99755.58
2023-10-20T11:33:27.132Z,99761.85
2023-10-20T11:35:58.073Z,99761.61
2023-10-20T11:38:28.643Z,99759.44
2023-10-20T11:40:57.228Z,99754.91
2023-10-20T11:43:25.583Z,99759.58
2023-10-20T11:45:54.925Z,99763.84
2023-10-20T11:48:24.661Z,99767.27
2023-10-20T11:50:53.053Z,99765.16
2023-10-20T11:53:21.368Z,99763.52
2023-10-20T11:55:51.099Z,99763.98
2023-10-20T11:58:19.576Z,99767.81
2023-10-20T12:00:48.029Z,99777.89
2023-10-20T12:03:16.632Z,99781.80
2023-10-20T12:05:47.863Z,99781.74
2023-10-20T12:08:17.078Z,99781.11
2023-10-20T12:10:45.289Z,99776.41
2023-10-20T12:13:13.895Z,99772.02
2023-10-20T12:15:42.581Z,99767.65
2023-10-20T12:18:10.988Z,99764.30
2023-10-20T12:20:39.411Z,99762.95
2023-10-20T12:23:07.783Z,99763.76
2023-10-20T12:25:36.334Z,99760.34
2023-10-20T12:28:06.144Z,99762.70
2023-10-20T12:30:34.412Z,99748.36
2023-10-20T12:33:03.233Z,99755.84
2023-10-20T12:35:31.415Z,99751.63
2023-10-20T12:37:59.575Z,99746.92
2023-10-20T12:40:27.820Z,99739.17
2023-10-20T12:42:55.964Z,99733.30
2023-10-20T12:45:24.940Z,99735.94
2023-10-20T12:47:56.952Z,99732.91
2023-10-20T12:50:25.342Z,99730.48
2023-10-20T12:52:53.888Z,99722.16
2023-10-20T12:55:22.388Z,99718.47
2023-10-20T12:57:51.056Z,99720.00
2023-10-20T13:00:21.296Z,99716.75
2023-10-20T13:02:53.976Z,99719.16
2023-10-20T13:05:23.586Z,99711.36
2023-10-20T13:07:52.129Z,99709.91
2023-10-20T13:10:22.141Z,99710.66
2023-10-20T13:12:50.622Z,99712.81
2023-10-20T13:15:20.645Z,99715.11
2023-10-20T13:17:48.844Z,99714.94
2023-10-20T13:20:17.307Z,99725.34
2023-10-20T13:22:45.347Z,99735.59
2023-10-20T13:25:15.424Z,99738.16
2023-10-20T13:27:44.346Z,99737.89
2023-10-20T13:30:13.894Z,99738.86
2023-10-20T13:32:42.463Z,99747.88
2023-10-20T13:35:11.796Z,99752.82
2023-10-20T13:37:41.011Z,99762.53
2023-10-20T13:40:10.476Z,99759.39
2023-10-20T13:42:39.783Z,99759.22
2023-10-20T13:45:09.205Z,99764.44
2023-10-20T13:47:37.374Z,99766.91
2023-10-20T13:50:06.699Z,99771.23
2023-10-20T13:52:34.964Z,99768.76
2023-10-20T13:55:03.363Z,99767.80
2023-10-20T13:57:31.912Z,99764.10
2023-10-20T14:00:00.358Z,99770.11
2023-10-20T14:02:29.598Z,99771.26
2023-10-20T14:04:58.058Z,99770.02
2023-10-20T14:07:26.645Z,99771.83
2023-10-20T14:09:54.677Z,99772.75
2023-10-20T14:12:23.368Z,99769.14
2023-10-20T14:14:52.454Z,99771.45
2023-10-20T14:17:20.582Z,99770.15
2023-10-20T14:19:49.018Z,99771.91
2023-10-20T14:22:17.437Z,99772.52
2023-10-20T14:24:45.826Z,99764.57
2023-10-20T14:27:14.452Z,99770.02
2023-10-20T14:29:43.007Z,99769.64
2023-10-20T14:32:11.283Z,99764.19
2023-10-20T14:34:39.550Z,99774.71
2023-10-20T14:37:09.238Z,99781.17
2023-10-20T14:39:40.664Z,99785.40
2023-10-20T14:42:09.279Z,99790.95
2023-10-20T14:44:37.689Z,99784.84
2023-10-20T14:47:05.848Z,99784.02
2023-10-20T14:49:34.350Z,99783.92
2023-10-20T14:52:03.482Z,99774.33
2023-10-20T14:54:34.670Z,99787.72
2023-10-20T14:57:03.498Z,99787.45
2023-10-20T14:59:32.277Z,99796.55
2023-10-20T15:02:00.355Z,99798.45
2023-10-20T15:04:30.777Z,99799.13
2023-10-20T15:06:59.679Z,99793.91
2023-10-20T15:09:28.359Z,99795.83
2023-10-20T15:11:56.639Z,99797.58
2023-10-20T15:14:25.039Z,99802.48
2023-10-20T15:16:53.223Z,99811.91
2023-10-20T15:19:21.615Z,99817.84
2023-10-20T15:21:50.048Z,99817.14
2023-10-20T15:24:18.134Z,99816.02
2023-10-20T15:26:47.136Z,99818.64
2023-10-20T15:29:16.769Z,99812.58
2023-10-20T15:31:45.238Z,99807.39
2023-10-20T15:34:15.065Z,99809.77
2023-10-20T15:36:49.223Z,99814.20
2023-10-20T15:39:26.513Z,99810.54
2023-10-20T15:41:58.727Z,99811.27
2023-10-20T15:44:27.154Z,99809.04
2023-10-20T15:46:55.557Z,99806.29
2023-10-20T15:49:24.332Z,99813.25
2023-10-20T15:51:53.048Z,99808.84
2023-10-20T15:54:21.335Z,99810.57
2023-10-20T15:56:53.359Z,99819.13
2023-10-20T15:59:21.805Z,99820.69
2023-10-20T16:01:49.934Z,99821.00
2023-10-20T16:04:18.539Z,99820.59
2023-10-20T16:06:47.461Z,99824.11
2023-10-20T16:09:16.935Z,99823.33
2023-10-20T16:11:47.655Z,99816.25
2023-10-20T16:14:16.340Z,99808.71
2023-10-20T16:16:44.442Z,99807.89
2023-10-20T16:19:12.653Z,99805.20
2023-10-20T16:21:42.584Z,99803.61
2023-10-20T16:24:14.492Z,99802.85
2023-10-20T16:26:42.844Z,99805.63
2023-10-20T16:29:11.388Z,99808.13
2023-10-20T16:31:40.702Z,99806.91
2023-10-20T16:34:09.083Z,99805.33
2023-10-20T16:36:37.890Z,99807.33
2023-10-20T16:39:05.984Z,99807.33
2023-10-20T16:41:37.570Z,99813.13
2023-10-20T16:44:06.674Z,99815.23
2023-10-20T16:46:38.718Z,99814.81
2023-10-20T16:49:06.847Z,99816.75
2023-10-20T16:51:35.520Z,99814.02
2023-10-20T16:54:06.078Z,99824.80
2023-10-20T16:56:34.883Z,99831.72
2023-10-20T16:59:04.238Z,99831.87
2023-10-20T17:01:33.338Z,99831.87
2023-10-20T17:04:02.502Z,99822.85
2023-10-20T17:06:32.333Z,99820.58
2023-10-20T17:09:00.631Z,99816.27
2023-10-20T17:11:29.237Z,99808.73
2023-10-20T17:13:57.673Z,99811.48
2023-10-20T17:16:26.033Z,99812.77
2023-10-20T17:18:58.065Z,99811.55
2023-10-20T17:21:26.373Z,99811.33
2023-10-20T17:23:55.330Z,99811.02
2023-10-20T17:26:26.257Z,99812.64
2023-10-20T17:28:54.711Z,99811.29
2023-10-20T17:31:23.051Z,99806.92
2023-10-20T17:33:51.298Z,99806.00
2023-10-20T17:36:19.536Z,99808.31
2023-10-20T17:38:47.728Z,99804.21
2023-10-20T17:41:16.590Z,99808.04
2023-10-20T17:43:44.769Z,99807.80
2023-10-20T17:46:13.245Z,99812.40
2023-10-20T17:48:41.786Z,99818.91
2023-10-20T17:51:12.762Z,99821.70
2023-10-20T17:53:44.568Z,99817.08
2023-10-20T17:56:16.207Z,99816.35
2023-10-20T17:58:47.796Z,99822.27
2023-10-20T18:01:16.521Z,99825.08
2023-10-20T18:03:45.269Z,99831.90
2023-10-20T18:06:21.463Z,99841.61
2023-10-20T18:08:54.931Z,99844.84
2023-10-20T18:11:23.616Z,99844.36
2023-10-20T18:13:56.798Z,99842.54
2023-10-20T18:16:26.527Z,99843.33
2023-10-20T18:18:54.761Z,99836.75
2023-10-20T18:21:30.699Z,99840.05
2023-10-20T18:24:00.102Z,99840.24
2023-10-20T18:26:28.364Z,99841.05
2023-10-20T18:28:56.498Z,99834.36
2023-10-20T18:31:25.839Z,99836.55
2023-10-20T18:33:58.616Z,99837.71
2023-10-20T18:36:29.089Z,99838.52
2023-10-20T18:38:57.709Z,99839.55
2023-10-20T18:41:26.254Z,99846.52
2023-10-20T18:43:54.924Z,99849.70
2023-10-20T18:46:25.161Z,99855.79
2023-10-20T18:48:54.050Z,99860.57
2023-10-20T18:51:22.596Z,99865.92
2023-10-20T18:53:53.256Z,99869.05
2023-10-20T18:56:23.195Z,99869.96
2023-10-20T18:58:51.808Z,99865.66
2023-10-20T19:01:24.022Z,99874.96
2023-10-20T19:03:55.521Z,99875.88
2023-10-20T19:06:26.884Z,99881.19
2023-10-20T19:08:57.220Z,99885.33
2023-10-20T19:11:28.619Z,99885.29
2023-10-20T19:13:59.318Z,99886.36
2023-10-20T19:16:32.729Z,99889.18
2023-10-20T19:19:01.625Z,99897.69
2023-10-20T19:21:31.842Z,99897.74
2023-10-20T19:23:59.983Z,99899.06
2023-10-20T19:26:28.414Z,99900.66
2023-10-20T19:28:58.827Z,99901.44
2023-10-20T19:31:27.254Z,99901.15
2023-10-20T19:33:55.890Z,99906.92
2023-10-20T19:36:24.057Z,99914.52
2023-10-20T19:38:52.480Z,99913.61
2023-10-20T19:41:26.382Z,99917.52
2023-10-20T19:43:55.452Z,99918.91
2023-10-20T19:46:23.603Z,99914.98
2023-10-20T19:48:52.696Z,99913.33
2023-10-20T19:51:24.472Z,99913.76
2023-10-20T19:53:52.557Z,99920.75
2023-10-20T19:56:23.145Z,99922.95
2023-10-20T19:58:51.855Z,99922.06
2023-10-20T20:01:20.792Z,99925.17
2023-10-20T20:03:51.916Z,99923.11
2023-10-20T20:06:23.255Z,99919.55
2023-10-20T20:08:51.544Z,99922.16
2023-10-20T20:11:19.964Z,99919.03
2023-10-20T20:13:48.082Z,99914.27
2023-10-20T20:16:18.912Z,99915.46
2023-10-20T20:18:47.011Z,99914.75
2023-10-20T20:21:15.534Z,99913.02
2023-10-20T20:23:44.030Z,99909.05
2023-10-20T20:26:12.187Z,99903.35
2023-10-20T20:28:41.905Z,99901.52
2023-10-20T20:31:11.153Z,99898.00
2023-10-20T20:33:39.792Z,99896.27
2023-10-20T20:36:08.136Z,99894.41
2023-10-20T20:38:37.223Z,99894.21
2023-10-20T20:41:06.861Z,99888.86
2023-10-20T20:43:35.586Z,99890.16
2023-10-20T20:46:03.793Z,99885.77
2023-10-20T20:48:32.573Z,99888.81
2023-10-20T20:51:01.256Z,99894.23
2023-10-20T20:53:29.742Z,99900.17
2023-10-20T20:55:58.581Z,99902.90
2023-10-20T20:58:27.158Z,99905.18
2023-10-20T21:00:56.423Z,99901.27
2023-10-20T21:03:24.959Z,99896.46
2023-10-20T21:06:00.796Z,99894.76
2023-10-20T21:08:29.144Z,99889.10
2023-10-20T21:11:10.392Z,99894.20
2023-10-20T21:13:40.503Z,99889.48
2023-10-20T21:16:11.132Z,99890.83
2023-10-20T21:18:39.582Z,99882.05
2023-10-20T21:21:14.724Z,99881.66
2023-10-20T21:23:47.740Z,99882.13
2023-10-20T21:26:16.574Z,99881.89
2023-10-20T21:28:44.667Z,99880.70
2023-10-20T21:31:13.530Z,99872.76
2023-10-20T21:33:42.399Z,99876.65
2023-10-20T21:36:15.881Z,99875.95
2023-10-20T21:38:44.444Z,99876.98
2023-10-20T21:41:12.769Z,99879.38
2023-10-20T21:43:41.560Z,99880.17
2023-10-20T21:46:10.251Z,99876.76
2023-10-20T21:48:38.990Z,99881.16
2023-10-20T21:51:12.053Z,99881.79
2023-10-20T21:53:40.637Z,99883.61
2023-10-20T21:56:11.172Z,99878.64
2023-10-20T21:58:40.024Z,99881.17
2023-10-20T22:01:10.500Z,99876.13
2023-10-20T22:03:40.037Z,99874.43
2023-10-20T22:06:09.627Z,99872.20
2023-10-20T22:08:37.880Z,99872.54
2023-10-20T22:11:06.507Z,99871.17
2023-10-20T22:13:34.894Z,99875.61
2023-10-20T22:16:05.320Z,99883.41
2023-10-20T22:18:33.909Z,99887.38
2023-10-20T22:21:02.208Z,99885.98
2023-10-20T22:23:30.418Z,99891.63
2023-10-20T22:25:58.657Z,99894.13
2023-10-20T22:28:27.569Z,99895.02
2023-10-20T22:30:56.846Z,99898.08
2023-10-20T22:33:25.768Z,99898.88
2023-10-20T22:35:53.959Z,99897.54
2023-10-20T22:38:22.025Z,99896.10
2023-10-20T22:40:50.242Z,99893.56
2023-10-20T22:43:18.667Z,99900.57
2023-10-20T22:45:46.981Z,99905.49
2023-10-20T22:48:15.369Z,99913.20
2023-10-20T22:50:44.168Z,99914.04
2023-10-20T22:53:12.532Z,99916.12
2023-10-20T22:55:40.788Z,99918.09
2023-10-20T22:58:09.789Z,99916.98
2023-10-20T23:00:39.821Z,99919.19
2023-10-20T23:03:08.364Z,99917.25
2023-10-20T23:05:36.718Z,99917.60
2023-10-20T23:08:07.436Z,99913.73
2023-10-20T23:10:35.541Z,99913.98
2023-10-20T23:13:05.733Z,99913.49
2023-10-20T23:15:43.181Z,99908.00
2023-10-20T23:18:11.537Z,99907.06
2023-10-20T23:20:40.400Z,99906.38
2023-10-20T23:23:08.498Z,99910.09
2023-10-20T23:25:36.633Z,99908.48
2023-10-20T23:28:05.288Z,99913.05
2023-10-20T23:30:33.580Z,99914.31
2023-10-20T23:33:02.113Z,99917.55
2023-10-20T23:35:30.540Z,99915.77
2023-10-20T23:37:58.595Z,99916.31
2023-10-20T23:40:27.162Z,99921.81
2023-10-20T23:42:55.311Z,99919.96
2023-10-20T23:45:23.833Z,99919.35
2023-10-20T23:47:51.910Z,99924.93
2023-10-20T23:50:20.518Z,99933.44
2023-10-20T23:52:49.366Z,99932.29
2023-10-20T23:55:18.308Z,99937.27
2023-10-20T23:57:47.005Z,99937.93
